Time;durP1;ratioP1;P1;durP2;ratioP2;P2;SDS_P1;SDS_P2;PMS_P1;PMS_P2;Temp;Humidity;BMP_temperature;BMP_pressure;BME280_temperature;BME280_humidity;BME280_pressure;Samples;Min_cycle;Max_cycle;Signal;HPM_P1;HPM_P2
2022/04/17 00:00:07;;;;;;;4.07;2.97;;;5.10;99.90;;;;;;4978403;28;20141;-82
2022/04/17 00:02:32;;;;;;;4.03;2.80;;;5.10;99.90;;;;;;4997434;28;20054;-81
2022/04/17 00:04:58;;;;;;;4.13;2.70;;;5.10;99.90;;;;;;4984110;28;20404;-81
2022/04/17 00:07:24;;;;;;;4.88;2.72;;;6.30;99.90;;;;;;4985531;28;20088;-81
2022/04/17 00:09:50;;;;;;;4.97;2.70;;;5.00;99.90;;;;;;4982056;28;20038;-81
2022/04/17 00:12:15;;;;;;;3.33;2.53;;;6.20;99.90;;;;;;4967728;28;20213;-81
2022/04/17 00:14:43;;;;;;;3.90;3.10;;;4.90;99.90;;;;;;4982621;28;20467;-81
2022/04/17 00:17:10;;;;;;;5.03;2.90;;;4.90;99.90;;;;;;4999093;28;20487;-81
2022/04/17 00:19:35;;;;;;;4.78;2.55;;;4.90;99.90;;;;;;4977928;28;20046;-81
2022/04/17 00:22:01;;;;;;;4.38;2.90;;;5.70;99.90;;;;;;4982786;28;20063;-81
2022/04/17 00:24:27;;;;;;;4.40;2.97;;;4.80;99.90;;;;;;4977487;28;20053;-81
2022/04/17 00:26:53;;;;;;;5.05;2.92;;;4.80;99.90;;;;;;4980778;28;20041;-81
2022/04/17 00:29:19;;;;;;;3.78;2.95;;;4.80;99.90;;;;;;4999036;28;20125;-81
2022/04/17 00:31:45;;;;;;;3.97;2.70;;;4.80;99.90;;;;;;4981389;28;20595;-81
2022/04/17 00:34:10;;;;;;;5.28;3.03;;;4.70;99.90;;;;;;4979337;28;20096;-81
2022/04/17 00:36:36;;;;;;;4.45;2.80;;;4.70;99.90;;;;;;4967107;28;20037;-81
2022/04/17 00:39:02;;;;;;;4.88;3.10;;;4.70;99.90;;;;;;4981715;28;20050;-81
2022/04/17 00:41:27;;;;;;;7.13;2.88;;;4.70;99.90;;;;;;4972255;28;20041;-80
2022/04/17 00:43:54;;;;;;;5.47;3.00;;;4.70;99.90;;;;;;4982533;28;20050;-82
2022/04/17 00:46:20;;;;;;;5.07;3.17;;;4.70;99.90;;;;;;4965761;28;20087;-81
2022/04/17 00:48:45;;;;;;;4.32;3.20;;;4.60;99.90;;;;;;4982297;28;20504;-81
2022/04/17 00:51:12;;;;;;;5.18;2.85;;;4.60;99.90;;;;;;4997832;28;20400;-81
2022/04/17 00:53:39;;;;;;;5.30;3.30;;;5.20;99.90;;;;;;4978392;28;20100;-81
2022/04/17 00:56:06;;;;;;;5.72;3.17;;;4.60;99.90;;;;;;4987224;28;20042;-81
2022/04/17 00:58:32;;;;;;;5.82;3.20;;;4.60;99.90;;;;;;4984154;28;20654;-81
2022/04/17 01:00:59;;;;;;;4.47;3.17;;;4.50;99.90;;;;;;4984273;28;20487;-80
2022/04/17 01:03:25;;;;;;;3.60;2.85;;;4.50;99.90;;;;;;4995985;28;20403;-81
2022/04/17 01:05:51;;;;;;;3.67;2.85;;;4.50;99.90;;;;;;5000085;28;20056;-81
2022/04/17 01:08:17;;;;;;;4.35;3.00;;;4.30;99.90;;;;;;4966438;28;20950;-81
2022/04/17 01:10:43;;;;;;;4.20;3.03;;;4.40;99.90;;;;;;4999336;28;20054;-81
2022/04/17 01:13:09;;;;;;;6.07;3.15;;;5.60;99.90;;;;;;4998572;28;20061;-80
2022/04/17 01:15:36;;;;;;;4.90;2.85;;;4.80;99.90;;;;;;4978262;28;20038;-81
2022/04/17 01:18:06;;;;;;;5.30;3.30;;;4.40;99.90;;;;;;5012036;28;20504;-81
2022/04/17 01:20:32;;;;;;;4.28;2.83;;;4.40;99.90;;;;;;4965111;28;20041;-81
2022/04/17 01:28:41;;;;;;;4.90;3.20;;;4.30;99.90;;;;;;4953086;28;20559;-81
2022/04/17 01:31:06;;;;;;;5.65;3.08;;;4.30;99.90;;;;;;4966170;28;20095;-81
2022/04/17 01:33:32;;;;;;;5.18;3.30;;;4.20;99.90;;;;;;4981804;28;20545;-81
2022/04/17 01:35:58;;;;;;;4.28;3.40;;;4.20;99.90;;;;;;4980722;28;20049;-81
2022/04/17 01:38:24;;;;;;;4.43;3.22;;;4.60;99.90;;;;;;4964581;28;20454;-81
2022/04/17 01:40:49;;;;;;;5.95;3.58;;;4.10;99.90;;;;;;4980859;28;20126;-81
2022/04/17 01:43:15;;;;;;;4.82;2.95;;;4.10;99.90;;;;;;4963489;28;20052;-81
2022/04/17 01:45:40;;;;;;;5.10;3.30;;;4.30;99.90;;;;;;4980901;28;20054;-81
2022/04/17 01:48:06;;;;;;;5.50;3.38;;;4.10;99.90;;;;;;4980065;28;20144;-81
2022/04/17 01:50:32;;;;;;;4.70;3.97;;;4.10;99.90;;;;;;4997997;28;20038;-81
2022/04/17 01:53:00;;;;;;;4.18;3.58;;;4.00;99.90;;;;;;4966445;28;20058;-81
2022/04/17 01:55:28;;;;;;;4.47;3.45;;;4.00;99.90;;;;;;4978002;28;20057;-81
2022/04/17 01:57:53;;;;;;;5.35;3.70;;;5.10;99.90;;;;;;4996193;28;20046;-81
2022/04/17 02:00:19;;;;;;;4.93;3.60;;;4.10;99.90;;;;;;4965357;28;20042;-81
2022/04/17 02:02:45;;;;;;;5.72;3.10;;;4.20;99.90;;;;;;4979798;28;20133;-81
2022/04/17 02:05:11;;;;;;;5.05;3.83;;;3.90;99.90;;;;;;4996478;28;20124;-81
2022/04/17 02:07:37;;;;;;;5.25;3.75;;;3.90;99.90;;;;;;4965383;28;20038;-81
2022/04/17 02:10:06;;;;;;;6.18;3.45;;;3.90;99.90;;;;;;4992388;28;20042;-80
2022/04/17 02:12:33;;;;;;;5.60;3.85;;;3.90;99.90;;;;;;4979392;28;20124;-81
2022/04/17 02:14:59;;;;;;;5.28;3.58;;;4.60;99.90;;;;;;4963890;28;20038;-80
2022/04/17 02:17:25;;;;;;;4.88;3.20;;;5.20;99.90;;;;;;4996230;28;20072;-81
2022/04/17 02:19:54;;;;;;;4.70;3.50;;;3.80;99.90;;;;;;4979918;28;20101;-81
2022/04/17 02:22:19;;;;;;;4.95;3.75;;;3.80;99.90;;;;;;4978207;28;20058;-81
2022/04/17 02:24:45;;;;;;;5.88;3.92;;;3.80;99.90;;;;;;4977069;28;20220;-81
2022/04/17 02:27:11;;;;;;;4.43;3.45;;;3.80;99.90;;;;;;4963751;28;20124;-82
2022/04/17 02:29:36;;;;;;;4.82;3.33;;;5.40;99.90;;;;;;4980765;28;20034;-81
2022/04/17 02:32:02;;;;;;;6.32;3.97;;;4.60;99.90;;;;;;4966113;28;20081;-80
2022/04/17 02:34:29;;;;;;;6.07;3.83;;;3.70;99.90;;;;;;4966111;28;20573;-81
2022/04/17 02:36:55;;;;;;;7.00;4.13;;;3.70;99.90;;;;;;4979493;28;20046;-81
2022/04/17 02:39:21;;;;;;;4.50;3.60;;;4.00;99.90;;;;;;4977236;28;20529;-82
2022/04/17 02:41:46;;;;;;;5.07;3.88;;;4.10;99.90;;;;;;4994953;28;20065;-81
2022/04/17 02:44:12;;;;;;;5.90;4.00;;;3.60;99.90;;;;;;4961982;28;20054;-81
2022/04/17 02:49:22;;;;;;;5.75;3.67;;;3.60;99.90;;;;;;4979139;28;20047;-81
2022/04/17 02:51:47;;;;;;;6.15;4.05;;;4.40;99.90;;;;;;4976200;28;20065;-81
2022/04/17 02:54:13;;;;;;;4.75;3.88;;;3.70;99.90;;;;;;4974661;28;20062;-82
2022/04/17 02:56:39;;;;;;;5.72;4.15;;;3.60;99.90;;;;;;4983489;28;20077;-81
2022/04/17 02:59:04;;;;;;;6.28;4.10;;;3.60;99.90;;;;;;4978910;28;20050;-80
2022/04/17 03:06:58;;;;;;;5.05;3.72;;;4.60;99.90;;;;;;4997157;28;20124;-83
2022/04/17 03:09:25;;;;;;;6.05;3.90;;;3.50;99.90;;;;;;4976506;28;20034;-81
2022/04/17 03:11:50;;;;;;;5.78;4.20;;;4.10;99.90;;;;;;4980507;28;20046;-81
2022/04/17 03:14:16;;;;;;;6.20;3.97;;;3.50;99.90;;;;;;4995275;28;20052;-81
2022/04/17 03:16:42;;;;;;;5.75;3.97;;;4.60;99.90;;;;;;4982767;28;20045;-82
2022/04/17 03:19:07;;;;;;;5.25;4.03;;;3.90;99.90;;;;;;4982628;28;20058;-81
2022/04/17 03:21:33;;;;;;;5.22;4.10;;;3.40;99.90;;;;;;4985764;28;20042;-82
2022/04/17 03:23:59;;;;;;;6.50;4.20;;;3.50;99.90;;;;;;4959813;28;20103;-81
2022/04/17 03:26:24;;;;;;;6.75;4.13;;;3.40;99.90;;;;;;4960666;28;20061;-82
2022/04/17 03:28:54;;;;;;;5.30;4.13;;;3.40;99.90;;;;;;4979472;28;20504;-81
2022/04/17 03:31:20;;;;;;;7.30;4.05;;;3.40;99.90;;;;;;4977788;28;20496;-82
2022/04/17 03:33:45;;;;;;;5.68;3.85;;;3.40;99.90;;;;;;4979882;28;20088;-81
2022/04/17 03:36:12;;;;;;;4.72;3.65;;;4.00;99.90;;;;;;4979868;28;20460;-82
2022/04/17 03:38:38;;;;;;;5.70;4.50;;;3.30;99.90;;;;;;4999028;28;20503;-81
2022/04/17 03:41:04;;;;;;;6.03;4.18;;;4.00;99.90;;;;;;4983870;28;20046;-82
2022/04/17 03:43:29;;;;;;;5.93;4.22;;;3.40;99.90;;;;;;4967727;28;22151;-82
2022/04/17 03:45:55;;;;;;;6.70;4.15;;;3.30;99.90;;;;;;4982735;28;20058;-81
2022/04/17 03:48:21;;;;;;;6.40;4.60;;;3.30;99.90;;;;;;5000794;28;20041;-82
2022/04/17 03:50:47;;;;;;;7.07;4.13;;;4.10;99.90;;;;;;4983366;28;20542;-82
2022/04/17 03:53:13;;;;;;;6.25;4.20;;;3.20;99.90;;;;;;4984019;28;20137;-82
2022/04/17 03:55:39;;;;;;;5.03;4.20;;;4.50;99.90;;;;;;4983234;28;20128;-82
2022/04/17 03:58:05;;;;;;;5.72;4.25;;;3.20;99.90;;;;;;4984468;28;20048;-81
2022/04/17 04:00:31;;;;;;;7.03;4.30;;;3.20;99.90;;;;;;4983659;28;20042;-82
2022/04/17 04:02:56;;;;;;;5.85;4.50;;;3.20;99.90;;;;;;4968288;28;20078;-81
2022/04/17 04:05:22;;;;;;;5.78;4.63;;;3.20;99.90;;;;;;4979293;28;20053;-81
2022/04/17 04:07:48;;;;;;;6.32;4.30;;;3.20;99.90;;;;;;4981994;28;20037;-82
2022/04/17 04:10:14;;;;;;;5.38;4.18;;;3.10;99.90;;;;;;4982756;28;20043;-81
2022/04/17 04:12:40;;;;;;;5.70;4.15;;;4.40;99.90;;;;;;4995443;28;20046;-81
2022/04/17 04:15:07;;;;;;;6.38;4.38;;;3.50;99.90;;;;;;4980700;28;20057;-81
2022/04/17 04:17:34;;;;;;;5.68;4.22;;;3.10;99.90;;;;;;4981526;28;20468;-81
2022/04/17 04:20:00;;;;;;;6.55;4.18;;;3.20;99.90;;;;;;4998125;28;20046;-81
2022/04/17 04:22:26;;;;;;;5.82;4.20;;;4.10;99.90;;;;;;4982199;28;20061;-81
2022/04/17 04:24:52;;;;;;;6.30;4.47;;;3.00;99.90;;;;;;4980789;28;20039;-81
2022/04/17 04:30:03;;;;;;;5.75;4.75;;;3.00;99.90;;;;;;4984288;28;20100;-81
2022/04/17 04:32:29;;;;;;;7.70;4.38;;;3.00;99.90;;;;;;4977759;28;20042;-81
2022/04/17 04:35:01;;;;;;;6.97;4.45;;;3.40;99.90;;;;;;4965821;28;20068;-81
2022/04/17 04:37:27;;;;;;;5.15;4.32;;;3.00;99.90;;;;;;4998516;28;20076;-80
2022/04/17 04:39:53;;;;;;;6.95;4.60;;;2.90;99.90;;;;;;4982918;28;20395;-83
2022/04/17 04:42:22;;;;;;;6.38;4.20;;;2.90;99.90;;;;;;4982115;28;20046;-83
2022/04/17 04:46:06;;;;;;;6.05;4.57;;;2.90;99.90;;;;;;4966372;28;20053;-80
2022/04/17 04:47:34;;;;;;;6.80;4.20;;;3.30;99.90;;;;;;4998099;28;20042;-81
2022/04/17 04:50:00;;;;;;;5.90;4.35;;;3.30;99.90;;;;;;4966709;28;20503;-81
2022/04/17 04:52:26;;;;;;;5.85;4.40;;;2.90;99.90;;;;;;4981857;28;20054;-81
2022/04/17 04:54:52;;;;;;;6.28;4.20;;;2.80;99.90;;;;;;4971844;28;20084;-81
2022/04/17 04:57:17;;;;;;;8.15;4.90;;;2.90;99.90;;;;;;4981646;28;20046;-82
2022/04/17 04:59:43;;;;;;;7.18;5.07;;;4.00;99.90;;;;;;4982992;28;20045;-82
2022/04/17 05:02:09;;;;;;;6.13;4.38;;;3.40;99.90;;;;;;4977956;28;20047;-80
2022/04/17 05:04:35;;;;;;;6.70;4.75;;;4.30;99.90;;;;;;4967628;28;20049;-82
2022/04/17 05:07:01;;;;;;;6.03;4.30;;;3.70;99.90;;;;;;4982658;28;20794;-81
2022/04/17 05:09:28;;;;;;;5.50;4.57;;;2.80;99.90;;;;;;4981668;28;20042;-81
2022/04/17 05:11:53;;;;;;;8.23;4.65;;;3.80;99.90;;;;;;4980267;28;20121;-81
2022/04/17 05:14:20;;;;;;;5.97;4.88;;;2.80;99.90;;;;;;4997853;28;20455;-82
2022/04/17 05:16:46;;;;;;;7.43;5.18;;;2.80;99.90;;;;;;4968146;28;20065;-81
2022/04/17 05:19:27;;;;;;;6.78;4.70;;;2.80;99.90;;;;;;4981956;28;20057;-81
2022/04/17 05:21:57;;;;;;;6.53;4.72;;;2.80;99.90;;;;;;4984210;28;20038;-82
2022/04/17 05:24:24;;;;;;;7.28;5.10;;;3.60;99.90;;;;;;4983196;28;20439;-81
2022/04/17 05:26:50;;;;;;;6.40;4.90;;;3.30;99.90;;;;;;4995730;28;20169;-82
2022/04/17 05:29:16;;;;;;;7.07;5.28;;;2.90;99.90;;;;;;4980891;28;20057;-82
2022/04/17 05:31:41;;;;;;;8.18;5.13;;;3.60;99.90;;;;;;4997120;28;20050;-82
2022/04/17 05:34:07;;;;;;;8.07;5.20;;;4.20;99.90;;;;;;4982813;28;20077;-82
2022/04/17 05:36:33;;;;;;;6.88;4.80;;;2.90;99.90;;;;;;4967078;28;20992;-82
2022/04/17 05:38:58;;;;;;;6.38;4.68;;;3.00;99.90;;;;;;4978951;28;20050;-81
2022/04/17 05:41:29;;;;;;;6.63;4.57;;;3.00;99.90;;;;;;4965541;28;20140;-83
2022/04/17 05:43:57;;;;;;;7.22;4.72;;;3.10;99.90;;;;;;4967630;28;20076;-82
2022/04/17 05:46:24;;;;;;;7.15;4.95;;;3.10;99.90;;;;;;4999188;28;20386;-82
2022/04/17 05:48:50;;;;;;;7.40;4.78;;;3.10;99.90;;;;;;4967135;28;20081;-83
2022/04/17 05:51:17;;;;;;;7.97;5.47;;;4.30;99.90;;;;;;4964444;28;20141;-82
2022/04/17 05:53:43;;;;;;;6.85;5.00;;;3.10;99.90;;;;;;4997134;28;20050;-83
2022/04/17 05:56:09;;;;;;;6.22;5.07;;;3.20;99.90;;;;;;4965799;28;20132;-83
2022/04/17 05:58:34;;;;;;;6.95;5.20;;;3.20;99.90;;;;;;4980192;28;20054;-82
2022/04/17 06:01:02;;;;;;;6.68;5.22;;;3.30;99.90;;;;;;4981211;28;20124;-82
2022/04/17 06:03:29;;;;;;;7.70;4.68;;;3.30;99.90;;;;;;4976479;28;20050;-82
2022/04/17 06:05:54;;;;;;;7.53;5.65;;;3.40;99.90;;;;;;4979675;28;20057;-82
2022/04/17 06:08:20;;;;;;;6.53;4.90;;;3.40;99.90;;;;;;4980525;28;20046;-82
2022/04/17 06:10:46;;;;;;;7.53;5.35;;;3.50;99.90;;;;;;4965056;28;20120;-82
2022/04/17 06:13:12;;;;;;;7.80;5.30;;;3.50;99.90;;;;;;4977859;28;20083;-82
2022/04/17 06:15:39;;;;;;;6.47;5.25;;;3.60;99.90;;;;;;4994069;28;20069;-82
2022/04/17 06:18:05;;;;;;;7.30;5.18;;;4.10;99.90;;;;;;4981384;28;20053;-80
2022/04/17 06:20:31;;;;;;;7.50;5.53;;;3.70;99.90;;;;;;4965394;28;20057;-83
2022/04/17 06:22:58;;;;;;;7.30;5.28;;;3.80;99.90;;;;;;4964422;28;20050;-90
2022/04/17 06:25:23;;;;;;;8.43;5.57;;;4.00;99.90;;;;;;4995634;28;20061;-83
2022/04/17 06:27:49;;;;;;;8.77;5.80;;;4.10;99.90;;;;;;4995340;28;20042;-83
2022/04/17 06:30:20;;;;;;;7.75;5.40;;;4.30;99.90;;;;;;4980670;28;20121;-82
2022/04/17 06:32:46;;;;;;;9.45;5.65;;;4.50;99.90;;;;;;4996300;28;20515;-83
2022/04/17 06:35:13;;;;;;;8.25;5.57;;;4.60;99.90;;;;;;4982096;28;20054;-83
2022/04/17 06:37:49;;;;;;;9.80;6.03;;;5.90;99.90;;;;;;4994933;28;20069;-83
2022/04/17 06:40:23;;;;;;;11.20;6.38;;;5.00;99.90;;;;;;4983765;28;20061;-82
2022/04/17 06:42:51;;;;;;;7.47;5.30;;;5.20;99.90;;;;;;4981187;28;20129;-85
2022/04/17 06:45:18;;;;;;;8.98;6.55;;;5.30;99.90;;;;;;4980030;28;20507;-86
2022/04/17 06:47:45;;;;;;;7.38;5.97;;;6.00;99.90;;;;;;4980659;28;20057;-85
2022/04/17 06:50:11;;;;;;;7.75;6.00;;;5.80;99.90;;;;;;4978766;28;20042;-85
2022/04/17 06:52:38;;;;;;;7.97;5.95;;;6.00;99.90;;;;;;4979995;28;20750;-84
2022/04/17 06:55:05;;;;;;;6.03;5.22;;;6.10;99.90;;;;;;4976179;28;20054;-83
2022/04/17 06:57:35;;;;;;;7.60;5.75;;;6.30;99.90;;;;;;4995181;28;20057;-86
2022/04/17 07:00:10;;;;;;;7.47;5.75;;;6.50;99.90;;;;;;4981587;28;20081;-84
2022/04/17 07:02:37;;;;;;;7.53;5.87;;;6.70;99.90;;;;;;4964653;28;20047;-84
2022/04/17 07:05:03;;;;;;;7.95;6.35;;;6.90;99.90;;;;;;4994369;28;20066;-85
2022/04/17 07:07:29;;;;;;;8.05;6.30;;;7.10;99.90;;;;;;4977825;28;20074;-86
2022/04/17 07:09:55;;;;;;;8.32;6.15;;;7.40;99.90;;;;;;4976628;28;20073;-82
2022/04/17 07:12:21;;;;;;;6.53;5.32;;;7.60;99.90;;;;;;4983551;28;20492;-85
2022/04/17 07:14:48;;;;;;;9.65;5.40;;;7.80;99.90;;;;;;4983477;28;20058;-87
2022/04/17 07:17:14;;;;;;;6.40;5.28;;;8.00;99.90;;;;;;4968697;28;20509;-85
2022/04/17 07:19:39;;;;;;;7.13;5.65;;;8.20;99.90;;;;;;4968463;28;20049;-84
2022/04/17 07:22:06;;;;;;;7.53;5.78;;;8.40;99.90;;;;;;4974367;28;20046;-83
2022/04/17 07:24:32;;;;;;;8.73;5.93;;;9.10;99.90;;;;;;4983920;28;20057;-87
2022/04/17 07:27:00;;;;;;;6.65;5.28;;;8.90;99.90;;;;;;4989102;28;20042;-86
2022/04/17 07:29:26;;;;;;;7.65;5.28;;;9.20;99.90;;;;;;4965850;28;20046;-87
2022/04/17 07:31:56;;;;;;;7.13;5.45;;;9.40;99.90;;;;;;4969788;28;20046;-85
2022/04/17 07:34:21;;;;;;;6.57;4.97;;;9.60;99.90;;;;;;4983405;28;20377;-82
2022/04/17 07:36:48;;;;;;;7.57;4.88;;;9.80;99.90;;;;;;4984961;28;20037;-85
2022/04/17 07:39:17;;;;;;;6.53;4.72;;;10.00;99.90;;;;;;4982897;28;20115;-85
2022/04/17 07:41:45;;;;;;;8.85;5.00;;;10.10;99.90;;;;;;4968384;28;20514;-83
2022/04/17 07:44:11;;;;;;;5.75;4.90;;;10.30;99.90;;;;;;4997469;28;20123;-85
2022/04/17 07:46:42;;;;;;;6.15;4.32;;;10.50;99.90;;;;;;4981207;28;20049;-81
2022/04/17 07:49:08;;;;;;;5.70;4.93;;;10.70;99.90;;;;;;4983442;28;20125;-81
2022/04/17 07:51:34;;;;;;;6.30;4.78;;;10.90;99.90;;;;;;4996425;28;20086;-84
2022/04/17 07:54:01;;;;;;;5.43;4.38;;;11.00;99.90;;;;;;4981835;28;20123;-82
2022/04/17 07:56:27;;;;;;;5.97;4.32;;;11.20;99.90;;;;;;5000453;28;20080;-83
2022/04/17 07:58:52;;;;;;;5.95;4.07;;;11.40;99.90;;;;;;4970884;28;20042;-83
2022/04/17 08:01:18;;;;;;;6.38;4.50;;;11.60;99.90;;;;;;5010005;28;20050;-82
2022/04/17 08:06:10;;;;;;;6.60;4.40;;;12.00;99.90;;;;;;5001951;28;20053;-82
2022/04/17 08:08:37;;;;;;;5.63;4.35;;;12.10;99.90;;;;;;4988986;28;20056;-84
2022/04/17 08:11:07;;;;;;;5.85;4.40;;;12.30;99.90;;;;;;4988453;28;20133;-83
2022/04/17 08:13:33;;;;;;;5.78;4.03;;;12.40;99.90;;;;;;4982960;28;20053;-84
2022/04/17 08:16:00;;;;;;;6.13;4.68;;;12.60;99.90;;;;;;4998357;28;20061;-84
2022/04/17 08:18:26;;;;;;;5.40;4.40;;;12.80;99.90;;;;;;4983811;28;20139;-86
2022/04/17 08:20:52;;;;;;;4.85;4.03;;;12.80;99.80;;;;;;4985049;28;20049;-84
2022/04/17 08:23:18;;;;;;;5.20;3.95;;;13.00;99.80;;;;;;4965639;28;20042;-83
2022/04/17 08:25:44;;;;;;;4.90;4.15;;;13.10;99.20;;;;;;4964902;28;20049;-82
2022/04/17 08:28:10;;;;;;;5.40;4.00;;;13.20;98.90;;;;;;4996437;28;20054;-83
2022/04/17 08:30:37;;;;;;;6.10;4.20;;;13.30;98.60;;;;;;4996491;28;20128;-82
2022/04/17 08:33:06;;;;;;;5.93;3.78;;;13.40;98.40;;;;;;4997818;28;20045;-83
2022/04/17 08:35:32;;;;;;;5.53;4.20;;;14.10;98.40;;;;;;4983355;28;20039;-82
2022/04/17 08:38:00;;;;;;;4.85;3.97;;;13.70;98.00;;;;;;4980938;28;20043;-83
2022/04/17 08:40:29;;;;;;;5.95;4.13;;;13.80;97.80;;;;;;4982391;28;20054;-83
2022/04/17 08:42:56;;;;;;;6.95;3.97;;;14.00;97.50;;;;;;5002956;28;20054;-83
2022/04/17 08:45:22;;;;;;;5.13;4.10;;;14.10;97.10;;;;;;4996779;28;22896;-84
2022/04/17 08:47:49;;;;;;;5.93;4.35;;;14.20;96.90;;;;;;4987052;28;20044;-84
2022/04/17 08:50:18;;;;;;;6.15;3.97;;;14.50;96.90;;;;;;4965570;28;20120;-84
2022/04/17 08:52:46;;;;;;;5.72;4.20;;;14.40;95.80;;;;;;5013619;28;20092;-83
2022/04/17 08:55:13;;;;;;;4.93;4.00;;;14.50;96.10;;;;;;4998227;28;20407;-84
2022/04/17 08:57:39;;;;;;;4.85;3.70;;;15.10;96.30;;;;;;4998836;28;20092;-84
2022/04/17 09:00:08;;;;;;;4.63;3.78;;;14.90;96.00;;;;;;4966491;28;20480;-83
2022/04/17 09:02:35;;;;;;;4.20;3.30;;;15.00;95.30;;;;;;4982168;28;20049;-84
2022/04/17 09:05:11;;;;;;;5.75;3.50;;;15.20;95.60;;;;;;4987950;28;20049;-83
2022/04/17 09:07:43;;;;;;;5.93;3.38;;;15.40;93.90;;;;;;4997063;28;20042;-84
2022/04/17 09:10:09;;;;;;;5.20;3.63;;;15.40;92.50;;;;;;4978847;28;20570;-83
2022/04/17 09:12:35;;;;;;;4.20;3.40;;;15.50;91.80;;;;;;4995608;28;20039;-84
2022/04/17 09:15:01;;;;;;;5.38;3.95;;;15.80;92.30;;;;;;4982934;28;20063;-84
2022/04/17 09:17:34;;;;;;;4.57;3.45;;;16.00;92.30;;;;;;4980748;28;20475;-83
2022/04/17 09:20:00;;;;;;;4.82;3.80;;;16.20;91.70;;;;;;4972786;28;20125;-84
2022/04/17 09:22:45;;;;;;;4.13;3.25;;;16.40;91.50;;;;;;4986100;28;20515;-83
2022/04/17 09:25:12;;;;;;;4.13;3.20;;;16.60;86.50;;;;;;4998006;28;20681;-84
2022/04/17 09:27:41;;;;;;;3.88;3.47;;;16.80;89.20;;;;;;4997168;28;20459;-83
2022/04/17 09:30:29;;;;;;;4.03;3.35;;;16.90;87.60;;;;;;4983921;28;20038;-84
2022/04/17 09:32:56;;;;;;;4.75;2.97;;;17.10;84.80;;;;;;4980835;28;20050;-84
2022/04/17 09:35:23;;;;;;;4.47;3.45;;;17.30;84.10;;;;;;4982600;28;20046;-84
2022/04/17 09:37:49;;;;;;;4.63;3.80;;;17.40;81.60;;;;;;4981471;28;20593;-84
2022/04/17 09:40:20;;;;;;;6.15;3.10;;;17.70;81.80;;;;;;4983081;28;20133;-84
2022/04/17 09:42:48;;;;;;;3.55;2.75;;;17.80;78.00;;;;;;4980891;28;20596;-83
2022/04/17 09:45:14;;;;;;;5.05;3.33;;;18.10;78.00;;;;;;4982231;28;20084;-84
2022/04/17 09:47:40;;;;;;;5.15;3.28;;;18.20;76.20;;;;;;4981110;28;20046;-84
2022/04/17 09:50:07;;;;;;;4.20;3.10;;;18.30;75.40;;;;;;4988768;28;20073;-84
2022/04/17 09:52:45;;;;;;;4.38;3.30;;;18.40;75.50;;;;;;4981018;28;20042;-84
2022/04/17 09:55:12;;;;;;;4.25;3.28;;;18.20;69.60;;;;;;4998195;28;20057;-83
2022/04/17 09:57:43;;;;;;;4.40;3.33;;;18.30;73.50;;;;;;4982688;28;20054;-83
2022/04/17 10:00:18;;;;;;;4.47;3.42;;;18.60;72.90;;;;;;4982360;28;20038;-84
2022/04/17 10:02:47;;;;;;;4.37;3.13;;;18.70;72.30;;;;;;4981304;28;20047;-84
2022/04/17 10:05:17;;;;;;;4.50;3.45;;;18.90;71.80;;;;;;4997826;28;20053;-84
2022/04/17 10:07:45;;;;;;;4.95;3.17;;;18.90;70.40;;;;;;4997817;28;20192;-84
2022/04/17 10:10:13;;;;;;;4.15;3.53;;;19.00;72.20;;;;;;4997577;28;20041;-84
2022/04/17 10:12:40;;;;;;;5.53;3.72;;;19.00;70.70;;;;;;4965785;28;20113;-84
2022/04/17 10:15:10;;;;;;;4.97;3.65;;;19.10;70.60;;;;;;4982617;28;20054;-84
2022/04/17 10:17:41;;;;;;;5.85;3.40;;;19.30;71.10;;;;;;4982530;28;20062;-84
2022/04/17 10:20:09;;;;;;;5.63;3.28;;;19.40;70.10;;;;;;4968386;28;20042;-83
2022/04/17 10:22:40;;;;;;;3.97;2.95;;;19.50;69.70;;;;;;5000538;28;20563;-84
2022/04/17 10:25:10;;;;;;;4.22;3.35;;;19.50;67.30;;;;;;5004070;28;20519;-83
2022/04/17 10:27:38;;;;;;;4.95;3.63;;;19.40;66.30;;;;;;4982748;28;20050;-84
2022/04/17 10:30:20;;;;;;;4.57;3.25;;;19.30;67.80;;;;;;4997675;28;20121;-84
2022/04/17 10:33:21;;;;;;;3.92;3.20;;;19.50;68.20;;;;;;4996575;28;20050;-84
2022/04/17 10:36:03;;;;;;;3.67;2.78;;;19.80;66.30;;;;;;4964046;28;20529;-84
2022/04/17 10:38:49;;;;;;;4.05;3.00;;;20.10;64.80;;;;;;4997742;28;20054;-82
2022/04/17 10:41:16;;;;;;;5.20;2.80;;;19.90;61.30;;;;;;4997650;28;20057;-82
2022/04/17 10:43:47;;;;;;;4.00;3.22;;;19.90;63.20;;;;;;4981286;28;20060;-82
2022/04/17 10:46:21;;;;;;;4.72;3.42;;;19.90;62.80;;;;;;4983244;28;20050;-83
2022/04/17 10:48:57;;;;;;;3.92;3.00;;;20.10;63.40;;;;;;4980720;28;20046;-83
2022/04/17 10:51:32;;;;;;;5.10;2.70;;;20.40;64.60;;;;;;4989347;28;20487;-82
2022/04/17 10:54:13;;;;;;;3.53;2.72;;;20.60;61.90;;;;;;4998063;28;20388;-83
2022/04/17 10:56:59;;;;;;;3.90;3.00;;;20.60;59.60;;;;;;4989013;28;20117;-83
2022/04/17 10:59:31;;;;;;;3.55;2.83;;;21.00;58.40;;;;;;4998615;28;20085;-84
2022/04/17 11:02:10;;;;;;;4.25;2.75;;;20.80;58.30;;;;;;4997384;28;20056;-84
2022/04/17 11:04:53;;;;;;;2.97;2.08;;;20.80;56.70;;;;;;4980893;28;20089;-82
2022/04/17 11:07:21;;;;;;;4.22;2.40;;;20.90;56.70;;;;;;4989599;28;20128;-83
2022/04/17 11:09:47;;;;;;;3.05;2.17;;;21.10;57.30;;;;;;4980225;28;20047;-83
2022/04/17 11:12:19;;;;;;;3.88;2.50;;;21.30;56.80;;;;;;4997095;28;20129;-85
2022/04/17 11:15:15;;;;;;;2.65;2.10;;;21.10;53.80;;;;;;4997424;28;20054;-83
2022/04/17 11:17:42;;;;;;;3.95;2.20;;;21.20;52.30;;;;;;4996826;28;20675;-83
2022/04/17 11:20:09;;;;;;;3.17;1.80;;;21.40;52.70;;;;;;4984960;28;20057;-82
2022/04/17 11:22:36;;;;;;;3.03;2.00;;;20.90;52.20;;;;;;4997590;28;20050;-84
2022/04/17 11:25:12;;;;;;;2.80;1.70;;;20.70;50.40;;;;;;4997434;28;20550;-83
2022/04/17 11:27:41;;;;;;;;;;;20.50;49.30;;;;;;4997755;28;20511;-82
2022/04/17 11:30:13;;;;;;;2.30;1.50;;;20.60;46.60;;;;;;4996180;28;19926;-83
2022/04/17 11:32:39;;;;;;;3.33;1.70;;;20.70;50.00;;;;;;4979603;28;20133;-83
2022/04/17 11:35:10;;;;;;;3.30;2.15;;;21.00;50.20;;;;;;4996458;28;20648;-83
2022/04/17 11:37:36;;;;;;;2.83;2.08;;;21.00;49.20;;;;;;4979020;28;20082;-84
2022/04/17 11:40:15;;;;;;;2.65;1.95;;;20.90;48.90;;;;;;4997877;28;20507;-84
2022/04/17 11:42:48;;;;;;;3.00;1.90;;;20.90;48.90;;;;;;4995504;28;20061;-83
2022/04/17 11:45:20;;;;;;;3.60;2.40;;;20.90;48.80;;;;;;4989407;28;20137;-83
2022/04/17 11:47:47;;;;;;;4.97;2.28;;;20.80;48.50;;;;;;4997598;28;20054;-83
2022/04/17 11:50:27;;;;;;;3.83;2.13;;;20.80;50.10;;;;;;4995911;28;20123;-83
2022/04/17 11:52:55;;;;;;;3.13;2.28;;;21.10;50.40;;;;;;4979117;28;20050;-83
2022/04/17 11:55:26;;;;;;;2.80;1.98;;;21.50;50.10;;;;;;4989488;28;20455;-82
2022/04/17 11:57:53;;;;;;;3.15;2.15;;;21.80;49.60;;;;;;4981393;28;20057;-83
2022/04/17 12:00:19;;;;;;;3.67;2.50;;;22.00;49.70;;;;;;5001178;28;20050;-83
2022/04/17 12:02:45;;;;;;;3.30;1.98;;;22.20;49.20;;;;;;4967758;28;20052;-83
2022/04/17 12:05:16;;;;;;;2.88;2.17;;;22.20;48.30;;;;;;4969636;28;20046;-83
2022/04/17 12:07:44;;;;;;;2.90;2.30;;;22.30;48.90;;;;;;5001253;28;20138;-83
2022/04/17 12:10:13;;;;;;;3.20;2.55;;;22.40;48.90;;;;;;4983931;28;20046;-83
2022/04/17 12:12:45;;;;;;;5.18;2.20;;;22.50;48.70;;;;;;4983265;28;20054;-82
2022/04/17 12:15:12;;;;;;;3.30;2.30;;;22.40;48.20;;;;;;4968128;28;20602;-83
2022/04/17 12:17:39;;;;;;;4.60;2.55;;;22.40;48.10;;;;;;4983840;28;20045;-82
2022/04/17 12:20:09;;;;;;;3.45;2.42;;;22.40;48.10;;;;;;4984564;28;20125;-83
2022/04/17 12:22:37;;;;;;;2.80;2.20;;;22.40;47.30;;;;;;5000446;28;20313;-81
2022/04/17 12:25:19;;;;;;;3.40;2.10;;;22.20;47.30;;;;;;4984008;28;20061;-82
2022/04/17 12:27:46;;;;;;;4.40;2.30;;;22.00;47.00;;;;;;5015960;28;20141;-82
2022/04/17 12:30:12;;;;;;;3.95;2.30;;;22.30;48.50;;;;;;4983457;28;20050;-83
2022/04/17 12:32:45;;;;;;;4.28;2.20;;;22.40;48.30;;;;;;5000216;28;20062;-82
2022/04/17 12:35:14;;;;;;;3.58;2.50;;;22.30;47.10;;;;;;4985807;28;20400;-83
2022/04/17 12:37:40;;;;;;;2.90;2.42;;;22.40;47.20;;;;;;5000879;28;20057;-82
2022/04/17 12:40:24;;;;;;;3.08;2.13;;;22.40;46.90;;;;;;4986196;28;20132;-84
2022/04/17 12:42:50;;;;;;;3.05;2.33;;;22.80;46.90;;;;;;5005534;28;20046;-83
2022/04/17 12:45:26;;;;;;;3.00;2.17;;;22.80;47.00;;;;;;4994961;28;20141;-82
2022/04/17 12:48:06;;;;;;;3.05;1.92;;;22.80;46.20;;;;;;4994704;28;20077;-82
2022/04/17 12:50:32;;;;;;;3.97;2.22;;;22.50;44.80;;;;;;4968102;28;20050;-83
2022/04/17 12:53:00;;;;;;;3.42;1.90;;;22.60;46.00;;;;;;4983053;28;20061;-82
2022/04/17 12:55:34;;;;;;;3.33;2.08;;;22.70;45.70;;;;;;4983597;28;20061;-82
2022/04/17 12:58:01;;;;;;;2.88;1.90;;;22.80;45.50;;;;;;4990114;28;20058;-83
2022/04/17 13:00:29;;;;;;;3.60;2.20;;;22.80;46.00;;;;;;4999297;28;20837;-82
2022/04/17 13:03:15;;;;;;;3.75;2.03;;;22.70;45.30;;;;;;4998864;28;20046;-83
2022/04/17 13:05:41;;;;;;;5.35;2.30;;;22.80;44.60;;;;;;5001088;28;20049;-83
2022/04/17 13:08:09;;;;;;;3.53;2.25;;;22.70;45.20;;;;;;4998083;28;20104;-82
2022/04/17 13:10:36;;;;;;;2.85;2.10;;;22.80;44.90;;;;;;4999321;28;20046;-84
2022/04/17 13:13:02;;;;;;;3.13;2.50;;;22.60;44.70;;;;;;4981783;28;20128;-83
2022/04/17 13:15:37;;;;;;;3.92;2.40;;;22.50;45.10;;;;;;4984645;28;20089;-83